Terminal Aerodrome Forecast
Issued by NWS

Home | Current Version | Previous Version | Text Only | Print | Product List | Glossary On
Versions: 1 2 3 4 5 6 7 8 9 10 11 12 13 14 15 16 17 18
704
FTUS46 KLOX 131505 AAB
TAFSBA
TAF AMD
KSBA 131505Z 1315/1412 VRB03KT 1/4SM FG VV002
     FM131600 VRB03KT 2SM BR OVC002
     FM131700 16006KT P6SM SCT250
     FM140300 33005KT P6SM SKC
     FM140900 02008KT P6SM SKC=

USA.gov is the U.S. government's official web portal to all federal, state and local government web resources and services.